sensor_id;sensor_type;location;lat;lon;timestamp;P1;durP1;ratioP1;P2;durP2;ratioP2
45033;SDS011;30771;47.988;-4.186;2022-07-09T05:52:27;11.70;;;6.45;;
45033;SDS011;30771;47.988;-4.186;2022-07-09T05:54:53;9.70;;;6.07;;
45033;SDS011;30771;47.988;-4.186;2022-07-09T05:57:23;10.85;;;6.72;;
45033;SDS011;30771;47.988;-4.186;2022-07-09T06:55:49;7.20;;;4.97;;
45033;SDS011;30771;47.988;-4.186;2022-07-09T06:58:15;6.25;;;4.57;;
45033;SDS011;30771;47.988;-4.186;2022-07-09T07:00:40;8.50;;;4.60;;
45033;SDS011;30771;47.988;-4.186;2022-07-09T07:03:05;7.82;;;4.30;;
45033;SDS011;30771;47.988;-4.186;2022-07-09T07:05:31;8.77;;;4.80;;
45033;SDS011;30771;47.988;-4.186;2022-07-09T07:07:57;5.90;;;3.95;;
45033;SDS011;30771;47.988;-4.186;2022-07-09T07:10:22;7.68;;;3.92;;
45033;SDS011;30771;47.988;-4.186;2022-07-09T07:12:48;9.60;;;4.55;;
45033;SDS011;30771;47.988;-4.186;2022-07-09T07:15:13;6.13;;;4.13;;
45033;SDS011;30771;47.988;-4.186;2022-07-09T07:17:38;11.00;;;4.47;;
45033;SDS011;30771;47.988;-4.186;2022-07-09T07:20:03;6.40;;;4.20;;
45033;SDS011;30771;47.988;-4.186;2022-07-09T07:22:29;7.18;;;4.15;;
45033;SDS011;30771;47.988;-4.186;2022-07-09T07:24:54;6.78;;;3.15;;
45033;SDS011;30771;47.988;-4.186;2022-07-09T07:27:20;5.40;;;3.83;;
45033;SDS011;30771;47.988;-4.186;2022-07-09T07:29:45;4.57;;;3.13;;
45033;SDS011;30771;47.988;-4.186;2022-07-09T07:32:10;4.00;;;2.95;;
45033;SDS011;30771;47.988;-4.186;2022-07-09T07:34:35;7.93;;;3.20;;
45033;SDS011;30771;47.988;-4.186;2022-07-09T07:37:01;5.28;;;3.08;;
45033;SDS011;30771;47.988;-4.186;2022-07-09T07:39:26;4.55;;;2.55;;
45033;SDS011;30771;47.988;-4.186;2022-07-09T07:41:51;4.50;;;2.70;;
45033;SDS011;30771;47.988;-4.186;2022-07-09T07:44:16;5.07;;;2.80;;
45033;SDS011;30771;47.988;-4.186;2022-07-09T07:46:42;5.68;;;2.70;;
45033;SDS011;30771;47.988;-4.186;2022-07-09T07:49:07;4.88;;;2.75;;
45033;SDS011;30771;47.988;-4.186;2022-07-09T07:51:32;3.83;;;2.55;;
45033;SDS011;30771;47.988;-4.186;2022-07-09T07:53:58;3.17;;;2.13;;
45033;SDS011;30771;47.988;-4.186;2022-07-09T07:56:23;4.38;;;2.47;;
45033;SDS011;30771;47.988;-4.186;2022-07-09T07:58:48;3.75;;;2.22;;
45033;SDS011;30771;47.988;-4.186;2022-07-09T08:01:13;3.30;;;1.95;;
45033;SDS011;30771;47.988;-4.186;2022-07-09T08:03:39;4.93;;;2.20;;
45033;SDS011;30771;47.988;-4.186;2022-07-09T08:06:04;4.30;;;1.92;;
45033;SDS011;30771;47.988;-4.186;2022-07-09T08:08:29;4.07;;;2.05;;
45033;SDS011;30771;47.988;-4.186;2022-07-09T08:10:54;2.80;;;2.30;;
45033;SDS011;30771;47.988;-4.186;2022-07-09T08:13:20;3.60;;;2.13;;
45033;SDS011;30771;47.988;-4.186;2022-07-09T08:15:45;2.80;;;1.90;;
45033;SDS011;30771;47.988;-4.186;2022-07-09T08:18:10;2.92;;;2.03;;
45033;SDS011;30771;47.988;-4.186;2022-07-09T08:20:36;4.05;;;1.90;;
45033;SDS011;30771;47.988;-4.186;2022-07-09T08:23:02;5.65;;;1.98;;
45033;SDS011;30771;47.988;-4.186;2022-07-09T08:25:27;3.50;;;1.80;;
45033;SDS011;30771;47.988;-4.186;2022-07-09T08:27:53;2.80;;;1.90;;
45033;SDS011;30771;47.988;-4.186;2022-07-09T08:30:18;3.13;;;1.70;;
45033;SDS011;30771;47.988;-4.186;2022-07-09T08:32:43;2.22;;;1.50;;
45033;SDS011;30771;47.988;-4.186;2022-07-09T08:35:08;2.28;;;1.67;;
45033;SDS011;30771;47.988;-4.186;2022-07-09T08:37:34;3.83;;;1.58;;
45033;SDS011;30771;47.988;-4.186;2022-07-09T08:40:00;2.03;;;1.42;;
45033;SDS011;30771;47.988;-4.186;2022-07-09T08:42:25;2.50;;;1.50;;
45033;SDS011;30771;47.988;-4.186;2022-07-09T08:44:51;3.03;;;1.63;;
45033;SDS011;30771;47.988;-4.186;2022-07-09T08:47:17;4.03;;;1.70;;
45033;SDS011;30771;47.988;-4.186;2022-07-09T08:49:42;2.08;;;1.52;;
45033;SDS011;30771;47.988;-4.186;2022-07-09T08:52:10;2.88;;;1.50;;
45033;SDS011;30771;47.988;-4.186;2022-07-09T08:54:35;2.33;;;1.50;;
45033;SDS011;30771;47.988;-4.186;2022-07-09T08:57:00;4.45;;;1.20;;
45033;SDS011;30771;47.988;-4.186;2022-07-09T08:59:26;3.80;;;1.40;;
45033;SDS011;30771;47.988;-4.186;2022-07-09T09:01:51;4.03;;;1.42;;
45033;SDS011;30771;47.988;-4.186;2022-07-09T09:04:17;3.15;;;1.60;;
45033;SDS011;30771;47.988;-4.186;2022-07-09T09:06:42;1.83;;;1.17;;
45033;SDS011;30771;47.988;-4.186;2022-07-09T09:09:08;2.63;;;1.20;;
45033;SDS011;30771;47.988;-4.186;2022-07-09T09:11:34;1.80;;;1.23;;
45033;SDS011;30771;47.988;-4.186;2022-07-09T09:13:59;2.67;;;1.23;;
45033;SDS011;30771;47.988;-4.186;2022-07-09T09:16:24;1.67;;;1.20;;
45033;SDS011;30771;47.988;-4.186;2022-07-09T09:18:50;2.65;;;1.30;;
45033;SDS011;30771;47.988;-4.186;2022-07-09T09:21:18;3.72;;;1.30;;
45033;SDS011;30771;47.988;-4.186;2022-07-09T09:23:46;1.77;;;1.10;;
45033;SDS011;30771;47.988;-4.186;2022-07-09T09:26:14;1.73;;;0.98;;
45033;SDS011;30771;47.988;-4.186;2022-07-09T09:33:54;1.83;;;1.00;;
45033;SDS011;30771;47.988;-4.186;2022-07-09T09:39:06;2.97;;;1.20;;
45033;SDS011;30771;47.988;-4.186;2022-07-09T09:41:36;3.30;;;1.38;;
45033;SDS011;30771;47.988;-4.186;2022-07-09T09:44:06;17.98;;;1.90;;
45033;SDS011;30771;47.988;-4.186;2022-07-09T09:46:32;2.50;;;1.25;;
45033;SDS011;30771;47.988;-4.186;2022-07-09T09:48:59;5.68;;;1.27;;
45033;SDS011;30771;47.988;-4.186;2022-07-09T09:51:24;2.28;;;1.52;;
45033;SDS011;30771;47.988;-4.186;2022-07-09T09:53:55;1.90;;;1.52;;
45033;SDS011;30771;47.988;-4.186;2022-07-09T09:56:23;3.38;;;1.40;;
45033;SDS011;30771;47.988;-4.186;2022-07-09T09:58:50;3.00;;;1.40;;
45033;SDS011;30771;47.988;-4.186;2022-07-09T10:01:16;4.07;;;1.70;;
45033;SDS011;30771;47.988;-4.186;2022-07-09T10:03:42;2.17;;;1.50;;
45033;SDS011;30771;47.988;-4.186;2022-07-09T10:06:08;4.00;;;1.70;;
45033;SDS011;30771;47.988;-4.186;2022-07-09T10:08:34;2.55;;;1.40;;
45033;SDS011;30771;47.988;-4.186;2022-07-09T10:10:59;5.63;;;1.60;;
45033;SDS011;30771;47.988;-4.186;2022-07-09T10:13:24;3.65;;;1.50;;
45033;SDS011;30771;47.988;-4.186;2022-07-09T10:15:50;2.42;;;2.00;;
45033;SDS011;30771;47.988;-4.186;2022-07-09T10:18:19;2.80;;;1.50;;
45033;SDS011;30771;47.988;-4.186;2022-07-09T10:20:44;3.10;;;1.35;;
45033;SDS011;30771;47.988;-4.186;2022-07-09T10:23:22;4.10;;;1.30;;
45033;SDS011;30771;47.988;-4.186;2022-07-09T10:25:49;3.83;;;1.50;;
45033;SDS011;30771;47.988;-4.186;2022-07-09T10:28:16;2.35;;;1.33;;
45033;SDS011;30771;47.988;-4.186;2022-07-09T10:30:42;2.75;;;1.45;;
45033;SDS011;30771;47.988;-4.186;2022-07-09T10:33:11;3.05;;;1.20;;
45033;SDS011;30771;47.988;-4.186;2022-07-09T10:35:50;1.42;;;1.20;;
45033;SDS011;30771;47.988;-4.186;2022-07-09T10:38:16;1.85;;;1.25;;
45033;SDS011;30771;47.988;-4.186;2022-07-09T10:40:44;3.42;;;1.30;;
45033;SDS011;30771;47.988;-4.186;2022-07-09T10:43:11;2.03;;;1.20;;
45033;SDS011;30771;47.988;-4.186;2022-07-09T10:45:40;2.47;;;1.30;;
45033;SDS011;30771;47.988;-4.186;2022-07-09T10:48:07;2.03;;;1.10;;
45033;SDS011;30771;47.988;-4.186;2022-07-09T10:50:36;10.23;;;1.50;;
45033;SDS011;30771;47.988;-4.186;2022-07-09T10:53:02;1.77;;;1.10;;
45033;SDS011;30771;47.988;-4.186;2022-07-09T10:55:28;1.65;;;1.40;;
45033;SDS011;30771;47.988;-4.186;2022-07-09T10:57:54;2.22;;;1.33;;
45033;SDS011;30771;47.988;-4.186;2022-07-09T11:00:21;2.65;;;1.30;;
45033;SDS011;30771;47.988;-4.186;2022-07-09T11:05:25;1.98;;;1.10;;
45033;SDS011;30771;47.988;-4.186;2022-07-09T11:07:55;3.80;;;1.20;;
45033;SDS011;30771;47.988;-4.186;2022-07-09T11:10:32;2.28;;;1.20;;
45033;SDS011;30771;47.988;-4.186;2022-07-09T11:13:00;3.85;;;1.30;;
45033;SDS011;30771;47.988;-4.186;2022-07-09T11:15:26;1.52;;;1.00;;
45033;SDS011;30771;47.988;-4.186;2022-07-09T11:17:53;1.30;;;0.90;;
45033;SDS011;30771;47.988;-4.186;2022-07-09T11:20:20;1.75;;;1.10;;
45033;SDS011;30771;47.988;-4.186;2022-07-09T11:22:48;1.77;;;1.10;;
45033;SDS011;30771;47.988;-4.186;2022-07-09T11:27:42;1.30;;;1.00;;
45033;SDS011;30771;47.988;-4.186;2022-07-09T11:30:14;3.00;;;1.50;;
45033;SDS011;30771;47.988;-4.186;2022-07-09T11:32:43;2.83;;;2.53;;
45033;SDS011;30771;47.988;-4.186;2022-07-09T11:35:09;2.72;;;0.90;;
45033;SDS011;30771;47.988;-4.186;2022-07-09T11:37:36;1.23;;;0.88;;
45033;SDS011;30771;47.988;-4.186;2022-07-09T11:40:01;3.13;;;1.15;;
45033;SDS011;30771;47.988;-4.186;2022-07-09T11:42:27;4.88;;;1.33;;
45033;SDS011;30771;47.988;-4.186;2022-07-09T11:44:53;3.65;;;1.45;;
45033;SDS011;30771;47.988;-4.186;2022-07-09T11:47:20;1.23;;;0.82;;
45033;SDS011;30771;47.988;-4.186;2022-07-09T11:50:12;1.52;;;0.80;;
45033;SDS011;30771;47.988;-4.186;2022-07-09T11:52:45;1.40;;;0.73;;
45033;SDS011;30771;47.988;-4.186;2022-07-09T11:55:13;1.95;;;0.82;;
45033;SDS011;30771;47.988;-4.186;2022-07-09T12:00:25;1.00;;;0.70;;
45033;SDS011;30771;47.988;-4.186;2022-07-09T12:02:51;3.15;;;0.73;;
45033;SDS011;30771;47.988;-4.186;2022-07-09T12:05:26;2.45;;;0.70;;
45033;SDS011;30771;47.988;-4.186;2022-07-09T12:07:57;1.83;;;0.93;;
45033;SDS011;30771;47.988;-4.186;2022-07-09T12:10:27;1.27;;;0.90;;
45033;SDS011;30771;47.988;-4.186;2022-07-09T12:12:56;2.92;;;0.93;;
45033;SDS011;30771;47.988;-4.186;2022-07-09T12:15:22;2.40;;;0.90;;
45033;SDS011;30771;47.988;-4.186;2022-07-09T12:17:50;2.33;;;0.80;;
45033;SDS011;30771;47.988;-4.186;2022-07-09T12:20:20;3.47;;;0.80;;
45033;SDS011;30771;47.988;-4.186;2022-07-09T12:22:46;1.23;;;0.70;;
45033;SDS011;30771;47.988;-4.186;2022-07-09T12:25:11;0.98;;;0.70;;
45033;SDS011;30771;47.988;-4.186;2022-07-09T12:27:36;1.05;;;0.73;;
45033;SDS011;30771;47.988;-4.186;2022-07-09T12:30:02;0.90;;;0.70;;
45033;SDS011;30771;47.988;-4.186;2022-07-09T12:32:27;0.93;;;0.73;;
45033;SDS011;30771;47.988;-4.186;2022-07-09T12:34:52;2.95;;;0.88;;
45033;SDS011;30771;47.988;-4.186;2022-07-09T12:37:18;1.33;;;0.70;;
45033;SDS011;30771;47.988;-4.186;2022-07-09T12:39:43;1.27;;;0.80;;
45033;SDS011;30771;47.988;-4.186;2022-07-09T12:42:08;0.93;;;0.80;;
45033;SDS011;30771;47.988;-4.186;2022-07-09T12:44:34;0.85;;;0.82;;
45033;SDS011;30771;47.988;-4.186;2022-07-09T12:46:59;0.82;;;0.65;;
45033;SDS011;30771;47.988;-4.186;2022-07-09T12:49:24;1.67;;;0.60;;
45033;SDS011;30771;47.988;-4.186;2022-07-09T12:51:49;5.70;;;0.70;;
45033;SDS011;30771;47.988;-4.186;2022-07-09T12:54:15;1.15;;;0.50;;
45033;SDS011;30771;47.988;-4.186;2022-07-09T12:56:40;2.13;;;0.73;;
45033;SDS011;30771;47.988;-4.186;2022-07-09T12:59:06;0.82;;;0.70;;
45033;SDS011;30771;47.988;-4.186;2022-07-09T13:01:31;1.52;;;0.80;;
45033;SDS011;30771;47.988;-4.186;2022-07-09T13:03:56;0.98;;;0.50;;
45033;SDS011;30771;47.988;-4.186;2022-07-09T13:06:21;1.95;;;0.63;;
45033;SDS011;30771;47.988;-4.186;2022-07-09T13:08:47;1.63;;;0.70;;
45033;SDS011;30771;47.988;-4.186;2022-07-09T13:11:12;2.15;;;0.60;;
45033;SDS011;30771;47.988;-4.186;2022-07-09T13:13:37;1.10;;;0.70;;
45033;SDS011;30771;47.988;-4.186;2022-07-09T13:16:03;1.05;;;0.75;;
45033;SDS011;30771;47.988;-4.186;2022-07-09T13:18:28;1.33;;;0.70;;
45033;SDS011;30771;47.988;-4.186;2022-07-09T13:20:53;1.00;;;0.70;;
45033;SDS011;30771;47.988;-4.186;2022-07-09T13:23:19;1.52;;;0.82;;
45033;SDS011;30771;47.988;-4.186;2022-07-09T13:25:44;1.60;;;0.70;;
45033;SDS011;30771;47.988;-4.186;2022-07-09T13:28:09;2.45;;;0.88;;
45033;SDS011;30771;47.988;-4.186;2022-07-09T13:30:35;0.95;;;0.70;;
45033;SDS011;30771;47.988;-4.186;2022-07-09T13:33:00;0.60;;;0.60;;
45033;SDS011;30771;47.988;-4.186;2022-07-09T13:35:25;1.00;;;0.75;;
45033;SDS011;30771;47.988;-4.186;2022-07-09T13:37:51;2.80;;;0.60;;
45033;SDS011;30771;47.988;-4.186;2022-07-09T13:40:16;1.35;;;0.60;;
45033;SDS011;30771;47.988;-4.186;2022-07-09T13:42:41;4.03;;;0.88;;
45033;SDS011;30771;47.988;-4.186;2022-07-09T13:45:07;0.55;;;0.55;;
45033;SDS011;30771;47.988;-4.186;2022-07-09T13:47:32;1.95;;;0.55;;
45033;SDS011;30771;47.988;-4.186;2022-07-09T13:49:58;1.13;;;0.60;;
45033;SDS011;30771;47.988;-4.186;2022-07-09T13:52:23;2.55;;;0.70;;
45033;SDS011;30771;47.988;-4.186;2022-07-09T13:54:48;3.05;;;0.70;;
45033;SDS011;30771;47.988;-4.186;2022-07-09T13:57:14;3.13;;;0.70;;
45033;SDS011;30771;47.988;-4.186;2022-07-09T13:59:39;0.63;;;0.50;;
45033;SDS011;30771;47.988;-4.186;2022-07-09T14:02:04;0.75;;;0.50;;
45033;SDS011;30771;47.988;-4.186;2022-07-09T14:04:29;2.22;;;0.70;;
45033;SDS011;30771;47.988;-4.186;2022-07-09T14:06:55;0.90;;;0.47;;
45033;SDS011;30771;47.988;-4.186;2022-07-09T14:09:20;2.28;;;0.65;;
45033;SDS011;30771;47.988;-4.186;2022-07-09T14:11:46;0.93;;;0.68;;
45033;SDS011;30771;47.988;-4.186;2022-07-09T14:14:11;3.40;;;0.80;;
45033;SDS011;30771;47.988;-4.186;2022-07-09T14:16:37;1.45;;;0.70;;
45033;SDS011;30771;47.988;-4.186;2022-07-09T14:19:02;1.75;;;0.50;;
45033;SDS011;30771;47.988;-4.186;2022-07-09T14:21:27;15.82;;;0.90;;
45033;SDS011;30771;47.988;-4.186;2022-07-09T14:23:53;2.10;;;0.60;;
45033;SDS011;30771;47.988;-4.186;2022-07-09T14:26:18;1.20;;;0.63;;
45033;SDS011;30771;47.988;-4.186;2022-07-09T14:28:44;1.30;;;0.75;;
45033;SDS011;30771;47.988;-4.186;2022-07-09T14:31:09;1.63;;;0.70;;
45033;SDS011;30771;47.988;-4.186;2022-07-09T14:33:34;1.88;;;0.80;;
45033;SDS011;30771;47.988;-4.186;2022-07-09T14:35:59;4.68;;;0.80;;
45033;SDS011;30771;47.988;-4.186;2022-07-09T14:38:25;6.95;;;1.02;;
45033;SDS011;30771;47.988;-4.186;2022-07-09T14:40:50;10.40;;;1.02;;
45033;SDS011;30771;47.988;-4.186;2022-07-09T14:43:15;3.22;;;0.60;;
45033;SDS011;30771;47.988;-4.186;2022-07-09T14:45:41;1.70;;;0.70;;
45033;SDS011;30771;47.988;-4.186;2022-07-09T14:48:06;1.13;;;1.00;;
45033;SDS011;30771;47.988;-4.186;2022-07-09T14:50:31;1.42;;;0.70;;
45033;SDS011;30771;47.988;-4.186;2022-07-09T14:52:57;1.88;;;0.70;;
45033;SDS011;30771;47.988;-4.186;2022-07-09T14:55:22;2.92;;;0.60;;
45033;SDS011;30771;47.988;-4.186;2022-07-09T14:57:47;1.13;;;0.70;;
45033;SDS011;30771;47.988;-4.186;2022-07-09T15:00:12;2.45;;;0.70;;
45033;SDS011;30771;47.988;-4.186;2022-07-09T15:02:38;0.90;;;0.70;;
45033;SDS011;30771;47.988;-4.186;2022-07-09T15:05:03;2.95;;;0.90;;
45033;SDS011;30771;47.988;-4.186;2022-07-09T15:07:29;1.42;;;0.70;;
45033;SDS011;30771;47.988;-4.186;2022-07-09T15:09:54;1.55;;;0.55;;
45033;SDS011;30771;47.988;-4.186;2022-07-09T15:12:19;1.05;;;0.65;;
45033;SDS011;30771;47.988;-4.186;2022-07-09T15:14:45;3.38;;;0.60;;
45033;SDS011;30771;47.988;-4.186;2022-07-09T15:17:10;2.28;;;0.70;;
45033;SDS011;30771;47.988;-4.186;2022-07-09T15:19:35;1.60;;;0.60;;
45033;SDS011;30771;47.988;-4.186;2022-07-09T15:22:01;0.88;;;0.70;;
45033;SDS011;30771;47.988;-4.186;2022-07-09T15:24:26;1.00;;;0.60;;
45033;SDS011;30771;47.988;-4.186;2022-07-09T15:26:52;2.90;;;0.50;;
45033;SDS011;30771;47.988;-4.186;2022-07-09T15:29:17;1.35;;;0.60;;
45033;SDS011;30771;47.988;-4.186;2022-07-09T15:31:42;1.50;;;0.50;;
45033;SDS011;30771;47.988;-4.186;2022-07-09T15:34:07;1.90;;;0.60;;
45033;SDS011;30771;47.988;-4.186;2022-07-09T15:36:33;2.00;;;0.55;;
45033;SDS011;30771;47.988;-4.186;2022-07-09T15:38:58;1.25;;;0.70;;
45033;SDS011;30771;47.988;-4.186;2022-07-09T15:41:23;4.30;;;0.70;;
45033;SDS011;30771;47.988;-4.186;2022-07-09T15:43:49;3.20;;;0.75;;
45033;SDS011;30771;47.988;-4.186;2022-07-09T15:46:14;1.85;;;0.80;;
45033;SDS011;30771;47.988;-4.186;2022-07-09T15:48:39;1.83;;;0.80;;
45033;SDS011;30771;47.988;-4.186;2022-07-09T15:51:06;0.98;;;0.80;;
45033;SDS011;30771;47.988;-4.186;2022-07-09T15:53:32;1.58;;;0.90;;
45033;SDS011;30771;47.988;-4.186;2022-07-09T15:55:57;1.60;;;0.90;;
45033;SDS011;30771;47.988;-4.186;2022-07-09T15:58:22;2.25;;;0.80;;
45033;SDS011;30771;47.988;-4.186;2022-07-09T16:00:47;1.05;;;0.93;;
45033;SDS011;30771;47.988;-4.186;2022-07-09T16:03:13;3.30;;;0.90;;
45033;SDS011;30771;47.988;-4.186;2022-07-09T16:05:38;1.52;;;0.95;;
45033;SDS011;30771;47.988;-4.186;2022-07-09T16:08:03;5.18;;;0.90;;
45033;SDS011;30771;47.988;-4.186;2022-07-09T16:10:29;2.15;;;1.10;;
45033;SDS011;30771;47.988;-4.186;2022-07-09T16:12:54;5.78;;;0.80;;
45033;SDS011;30771;47.988;-4.186;2022-07-09T16:15:20;3.03;;;0.85;;
45033;SDS011;30771;47.988;-4.186;2022-07-09T16:17:46;0.70;;;0.70;;
45033;SDS011;30771;47.988;-4.186;2022-07-09T16:20:12;2.05;;;0.82;;
45033;SDS011;30771;47.988;-4.186;2022-07-09T16:22:38;2.05;;;0.80;;
45033;SDS011;30771;47.988;-4.186;2022-07-09T16:25:04;3.13;;;1.00;;
45033;SDS011;30771;47.988;-4.186;2022-07-09T16:27:30;1.70;;;1.00;;
45033;SDS011;30771;47.988;-4.186;2022-07-09T16:29:55;1.35;;;1.10;;
45033;SDS011;30771;47.988;-4.186;2022-07-09T16:32:20;2.45;;;1.30;;
45033;SDS011;30771;47.988;-4.186;2022-07-09T16:34:46;4.63;;;1.00;;
45033;SDS011;30771;47.988;-4.186;2022-07-09T16:37:11;1.33;;;1.00;;
45033;SDS011;30771;47.988;-4.186;2022-07-09T16:39:36;6.72;;;1.13;;
45033;SDS011;30771;47.988;-4.186;2022-07-09T16:42:02;2.72;;;1.00;;
45033;SDS011;30771;47.988;-4.186;2022-07-09T16:44:27;3.85;;;1.30;;
45033;SDS011;30771;47.988;-4.186;2022-07-09T16:46:53;4.32;;;1.40;;
45033;SDS011;30771;47.988;-4.186;2022-07-09T16:49:18;3.65;;;1.40;;
45033;SDS011;30771;47.988;-4.186;2022-07-09T16:51:43;3.72;;;1.30;;
45033;SDS011;30771;47.988;-4.186;2022-07-09T16:54:09;2.15;;;1.42;;
45033;SDS011;30771;47.988;-4.186;2022-07-09T16:56:34;2.28;;;1.10;;
45033;SDS011;30771;47.988;-4.186;2022-07-09T16:58:59;4.30;;;1.58;;
45033;SDS011;30771;47.988;-4.186;2022-07-09T17:01:24;3.50;;;1.25;;
45033;SDS011;30771;47.988;-4.186;2022-07-09T17:03:50;2.20;;;1.35;;
45033;SDS011;30771;47.988;-4.186;2022-07-09T17:06:15;5.35;;;1.50;;
45033;SDS011;30771;47.988;-4.186;2022-07-09T17:08:40;4.10;;;1.23;;
45033;SDS011;30771;47.988;-4.186;2022-07-09T17:11:06;5.05;;;1.70;;
45033;SDS011;30771;47.988;-4.186;2022-07-09T17:13:31;6.13;;;1.27;;
45033;SDS011;30771;47.988;-4.186;2022-07-09T17:15:56;1.75;;;1.27;;
45033;SDS011;30771;47.988;-4.186;2022-07-09T17:18:25;4.53;;;1.30;;
45033;SDS011;30771;47.988;-4.186;2022-07-09T17:20:51;4.38;;;1.30;;
45033;SDS011;30771;47.988;-4.186;2022-07-09T17:23:16;2.30;;;1.13;;
45033;SDS011;30771;47.988;-4.186;2022-07-09T17:25:42;1.30;;;0.95;;
45033;SDS011;30771;47.988;-4.186;2022-07-09T17:28:07;2.75;;;1.25;;
45033;SDS011;30771;47.988;-4.186;2022-07-09T17:30:32;2.25;;;1.00;;
45033;SDS011;30771;47.988;-4.186;2022-07-09T17:32:58;2.42;;;1.25;;
45033;SDS011;30771;47.988;-4.186;2022-07-09T17:35:23;1.75;;;1.10;;
45033;SDS011;30771;47.988;-4.186;2022-07-09T17:37:50;3.50;;;1.30;;
45033;SDS011;30771;47.988;-4.186;2022-07-09T17:40:16;3.25;;;1.50;;
45033;SDS011;30771;47.988;-4.186;2022-07-09T17:42:42;4.57;;;1.35;;
45033;SDS011;30771;47.988;-4.186;2022-07-09T17:45:07;1.85;;;1.25;;
45033;SDS011;30771;47.988;-4.186;2022-07-09T17:47:32;2.58;;;1.20;;
45033;SDS011;30771;47.988;-4.186;2022-07-09T17:49:58;3.13;;;1.05;;
45033;SDS011;30771;47.988;-4.186;2022-07-09T17:52:23;2.25;;;1.27;;
45033;SDS011;30771;47.988;-4.186;2022-07-09T17:54:49;4.28;;;1.42;;
45033;SDS011;30771;47.988;-4.186;2022-07-09T17:57:14;4.15;;;1.25;;
45033;SDS011;30771;47.988;-4.186;2022-07-09T17:59:40;4.00;;;1.40;;
45033;SDS011;30771;47.988;-4.186;2022-07-09T18:02:05;2.40;;;1.35;;
45033;SDS011;30771;47.988;-4.186;2022-07-09T18:04:30;4.13;;;1.50;;
45033;SDS011;30771;47.988;-4.186;2022-07-09T18:06:55;7.00;;;1.70;;
45033;SDS011;30771;47.988;-4.186;2022-07-09T18:09:21;3.03;;;1.20;;
45033;SDS011;30771;47.988;-4.186;2022-07-09T18:11:47;2.13;;;1.35;;
45033;SDS011;30771;47.988;-4.186;2022-07-09T18:14:12;3.08;;;1.30;;
45033;SDS011;30771;47.988;-4.186;2022-07-09T18:16:38;2.08;;;1.20;;
45033;SDS011;30771;47.988;-4.186;2022-07-09T18:19:03;1.55;;;1.25;;
45033;SDS011;30771;47.988;-4.186;2022-07-09T18:21:29;4.80;;;1.35;;
45033;SDS011;30771;47.988;-4.186;2022-07-09T18:23:54;3.83;;;1.10;;
45033;SDS011;30771;47.988;-4.186;2022-07-09T18:26:19;3.85;;;1.38;;
45033;SDS011;30771;47.988;-4.186;2022-07-09T18:28:45;2.92;;;1.30;;
45033;SDS011;30771;47.988;-4.186;2022-07-09T18:31:10;3.83;;;1.20;;
45033;SDS011;30771;47.988;-4.186;2022-07-09T18:33:36;1.80;;;1.13;;
45033;SDS011;30771;47.988;-4.186;2022-07-09T18:36:02;2.22;;;1.20;;
45033;SDS011;30771;47.988;-4.186;2022-07-09T18:38:28;1.65;;;1.08;;
45033;SDS011;30771;47.988;-4.186;2022-07-09T18:40:53;3.50;;;1.40;;
45033;SDS011;30771;47.988;-4.186;2022-07-09T18:43:19;3.00;;;1.10;;
45033;SDS011;30771;47.988;-4.186;2022-07-09T18:45:44;2.42;;;1.00;;
45033;SDS011;30771;47.988;-4.186;2022-07-09T18:48:09;3.78;;;1.25;;
45033;SDS011;30771;47.988;-4.186;2022-07-09T18:50:34;2.80;;;1.30;;
45033;SDS011;30771;47.988;-4.186;2022-07-09T18:53:01;2.47;;;1.23;;
45033;SDS011;30771;47.988;-4.186;2022-07-09T18:55:28;3.57;;;1.30;;
45033;SDS011;30771;47.988;-4.186;2022-07-09T18:57:54;3.08;;;1.30;;
45033;SDS011;30771;47.988;-4.186;2022-07-09T19:00:19;9.52;;;1.40;;
45033;SDS011;30771;47.988;-4.186;2022-07-09T19:02:44;3.40;;;1.60;;
45033;SDS011;30771;47.988;-4.186;2022-07-09T19:05:10;3.03;;;1.50;;
45033;SDS011;30771;47.988;-4.186;2022-07-09T19:07:35;1.40;;;1.30;;
45033;SDS011;30771;47.988;-4.186;2022-07-09T19:10:01;4.43;;;1.70;;
45033;SDS011;30771;47.988;-4.186;2022-07-09T19:12:27;1.67;;;1.40;;
45033;SDS011;30771;47.988;-4.186;2022-07-09T19:14:52;4.22;;;1.30;;
45033;SDS011;30771;47.988;-4.186;2022-07-09T19:17:18;3.40;;;1.10;;
45033;SDS011;30771;47.988;-4.186;2022-07-09T19:19:43;5.10;;;1.50;;
45033;SDS011;30771;47.988;-4.186;2022-07-09T19:22:08;4.78;;;1.70;;
45033;SDS011;30771;47.988;-4.186;2022-07-09T19:24:33;3.55;;;1.50;;
45033;SDS011;30771;47.988;-4.186;2022-07-09T19:26:59;6.22;;;1.80;;
45033;SDS011;30771;47.988;-4.186;2022-07-09T19:29:24;2.03;;;1.58;;
45033;SDS011;30771;47.988;-4.186;2022-07-09T19:31:49;4.22;;;1.50;;
45033;SDS011;30771;47.988;-4.186;2022-07-09T19:34:15;2.00;;;1.70;;
45033;SDS011;30771;47.988;-4.186;2022-07-09T19:36:40;4.13;;;1.77;;
45033;SDS011;30771;47.988;-4.186;2022-07-09T19:39:05;3.90;;;1.52;;
45033;SDS011;30771;47.988;-4.186;2022-07-09T19:41:32;4.80;;;1.80;;
45033;SDS011;30771;47.988;-4.186;2022-07-09T19:43:58;3.13;;;1.90;;
45033;SDS011;30771;47.988;-4.186;2022-07-09T19:46:24;4.80;;;2.22;;
45033;SDS011;30771;47.988;-4.186;2022-07-09T19:48:49;2.22;;;1.80;;
45033;SDS011;30771;47.988;-4.186;2022-07-09T19:51:14;4.90;;;2.10;;
45033;SDS011;30771;47.988;-4.186;2022-07-09T19:53:40;4.40;;;2.40;;
45033;SDS011;30771;47.988;-4.186;2022-07-09T19:56:05;4.70;;;1.90;;
45033;SDS011;30771;47.988;-4.186;2022-07-09T19:58:31;2.58;;;2.08;;
45033;SDS011;30771;47.988;-4.186;2022-07-09T20:00:56;3.22;;;2.10;;
45033;SDS011;30771;47.988;-4.186;2022-07-09T20:03:21;2.47;;;2.00;;
45033;SDS011;30771;47.988;-4.186;2022-07-09T20:05:46;6.68;;;2.50;;
45033;SDS011;30771;47.988;-4.186;2022-07-09T20:08:12;4.57;;;2.40;;
45033;SDS011;30771;47.988;-4.186;2022-07-09T20:10:37;2.95;;;2.05;;
45033;SDS011;30771;47.988;-4.186;2022-07-09T20:13:02;4.50;;;2.35;;
45033;SDS011;30771;47.988;-4.186;2022-07-09T20:15:28;5.38;;;2.50;;
45033;SDS011;30771;47.988;-4.186;2022-07-09T20:17:53;5.05;;;2.58;;
45033;SDS011;30771;47.988;-4.186;2022-07-09T20:20:19;5.22;;;3.15;;
45033;SDS011;30771;47.988;-4.186;2022-07-09T20:22:44;5.82;;;2.60;;
45033;SDS011;30771;47.988;-4.186;2022-07-09T20:25:09;4.05;;;2.28;;
45033;SDS011;30771;47.988;-4.186;2022-07-09T20:27:35;5.13;;;2.30;;
45033;SDS011;30771;47.988;-4.186;2022-07-09T20:30:00;5.90;;;2.67;;
45033;SDS011;30771;47.988;-4.186;2022-07-09T20:32:25;2.85;;;2.40;;
45033;SDS011;30771;47.988;-4.186;2022-07-09T20:34:51;4.78;;;2.50;;
45033;SDS011;30771;47.988;-4.186;2022-07-09T20:37:16;6.63;;;2.55;;
45033;SDS011;30771;47.988;-4.186;2022-07-09T20:39:43;4.45;;;2.47;;
45033;SDS011;30771;47.988;-4.186;2022-07-09T20:42:08;3.50;;;2.25;;
45033;SDS011;30771;47.988;-4.186;2022-07-09T20:44:33;4.10;;;2.42;;
45033;SDS011;30771;47.988;-4.186;2022-07-09T20:46:59;3.47;;;2.53;;
45033;SDS011;30771;47.988;-4.186;2022-07-09T20:49:24;3.70;;;2.40;;
45033;SDS011;30771;47.988;-4.186;2022-07-09T20:51:49;5.10;;;2.28;;
45033;SDS011;30771;47.988;-4.186;2022-07-09T20:54:14;3.95;;;2.05;;
45033;SDS011;30771;47.988;-4.186;2022-07-09T20:56:40;3.97;;;2.30;;
45033;SDS011;30771;47.988;-4.186;2022-07-09T20:59:06;4.75;;;2.50;;
45033;SDS011;30771;47.988;-4.186;2022-07-09T21:01:31;5.30;;;2.55;;
45033;SDS011;30771;47.988;-4.186;2022-07-09T21:03:56;3.42;;;3.08;;
45033;SDS011;30771;47.988;-4.186;2022-07-09T21:06:22;4.38;;;2.40;;
45033;SDS011;30771;47.988;-4.186;2022-07-09T21:08:47;3.17;;;2.53;;
45033;SDS011;30771;47.988;-4.186;2022-07-09T21:11:12;6.13;;;2.85;;
45033;SDS011;30771;47.988;-4.186;2022-07-09T21:13:38;3.17;;;2.40;;
45033;SDS011;30771;47.988;-4.186;2022-07-09T21:16:03;5.55;;;2.88;;
45033;SDS011;30771;47.988;-4.186;2022-07-09T21:18:29;4.70;;;2.70;;
45033;SDS011;30771;47.988;-4.186;2022-07-09T21:20:54;3.88;;;2.55;;
45033;SDS011;30771;47.988;-4.186;2022-07-09T21:23:20;4.63;;;2.17;;
45033;SDS011;30771;47.988;-4.186;2022-07-09T21:25:45;6.28;;;2.50;;
45033;SDS011;30771;47.988;-4.186;2022-07-09T21:28:10;3.70;;;2.30;;